Time;durP1;ratioP1;P1;durP2;ratioP2;P2;SDS_P1;SDS_P2;PMS_P1;PMS_P2;Temp;Humidity;BMP_temperature;BMP_pressure;BME280_temperature;BME280_humidity;BME280_pressure;Samples;Min_cycle;Max_cycle;Signal;HPM_P1;HPM_P2
2020/12/19 05:03:00;;;;;;;11.75;6.35;;;;;;;3.24;80.42;100683.19;4503109;22;20122;-76
2020/12/19 05:05:26;;;;;;;11.43;6.13;;;;;;;2.89;81.77;100692.19;4989803;28;20448;-75
2020/12/19 05:07:51;;;;;;;12.10;5.93;;;;;;;2.90;81.59;100688.53;4997984;28;20048;-76
2020/12/19 05:10:17;;;;;;;10.52;6.00;;;;;;;2.90;81.97;100687.69;4994509;28;20455;-76
2020/12/19 05:12:42;;;;;;;12.80;6.47;;;;;;;2.86;82.02;100687.19;4975041;28;20397;-76
2020/12/19 05:15:08;;;;;;;11.63;6.40;;;;;;;2.80;81.87;100687.81;4974549;28;20500;-76
2020/12/19 05:17:33;;;;;;;11.90;6.38;;;;;;;2.87;82.03;100685.38;4974287;28;20079;-76
2020/12/19 05:20:00;;;;;;;13.27;6.70;;;;;;;2.85;81.88;100690.03;4973867;28;20048;-76
2020/12/19 05:22:25;;;;;;;10.88;5.90;;;;;;;2.84;82.10;100680.31;4974149;28;20042;-76
2020/12/19 05:24:52;;;;;;;10.88;6.63;;;;;;;2.91;82.19;100684.03;4974130;28;20364;-75
2020/12/19 05:27:17;;;;;;;12.32;6.40;;;;;;;2.86;81.92;100689.88;4974969;28;20030;-75
2020/12/19 05:29:43;;;;;;;10.25;5.82;;;;;;;2.85;82.06;100687.34;4974349;28;20037;-75
2020/12/19 05:32:09;;;;;;;11.32;6.05;;;;;;;2.87;81.86;100694.22;4982288;28;20122;-75
2020/12/19 05:34:34;;;;;;;11.73;6.82;;;;;;;3.00;83.57;100685.75;4990282;28;20495;-75
2020/12/19 05:37:01;;;;;;;13.40;6.40;;;;;;;2.92;82.13;100680.38;4990353;28;20128;-75
2020/12/19 05:39:26;;;;;;;12.30;7.05;;;;;;;2.84;82.65;100694.50;4991698;28;20046;-76
2020/12/19 05:41:52;;;;;;;11.82;6.72;;;;;;;2.83;82.72;100697.34;5009669;28;20049;-76
2020/12/19 05:44:22;;;;;;;13.88;7.97;;;;;;;3.49;85.92;100692.16;5010489;28;20482;-75
2020/12/19 05:46:48;;;;;;;13.13;7.05;;;;;;;2.94;82.32;100696.25;4993823;28;20041;-76
2020/12/19 05:49:14;;;;;;;12.90;7.28;;;;;;;2.85;83.13;100701.53;4993290;28;20057;-75
2020/12/19 05:51:42;;;;;;;13.55;7.25;;;;;;;2.84;82.22;100691.84;5009367;28;20029;-75
2020/12/19 05:54:13;;;;;;;13.65;8.07;;;;;;;2.91;82.21;100692.03;5010008;28;20041;-75
2020/12/19 05:56:44;;;;;;;15.00;7.60;;;;;;;2.86;82.96;100695.19;4993731;28;20349;-76
2020/12/19 05:59:12;;;;;;;13.88;7.28;;;;;;;2.89;81.87;100694.88;5009736;28;20058;-75
2020/12/19 06:01:50;;;;;;;13.20;7.68;;;;;;;2.91;82.18;100692.88;5009635;28;20102;-75
2020/12/19 06:04:17;;;;;;;13.75;7.97;;;;;;;2.84;82.48;100683.00;4993160;28;20450;-76
2020/12/19 06:06:46;;;;;;;11.85;7.32;;;;;;;2.79;82.74;100698.63;4993159;28;20376;-75
2020/12/19 06:09:12;;;;;;;11.40;6.60;;;;;;;2.82;82.40;100690.31;5009413;28;20052;-75
2020/12/19 06:12:03;;;;;;;12.80;6.72;;;;;;;2.99;81.73;100694.78;5019170;28;20060;-75
2020/12/19 06:14:35;;;;;;;9.60;6.15;;;;;;;2.83;82.10;100697.34;5012781;28;20332;-75
2020/12/19 06:17:10;;;;;;;12.70;6.90;;;;;;;2.85;81.77;100701.53;5028944;28;20561;-76
2020/12/19 06:19:40;;;;;;;13.98;7.72;;;;;;;2.98;81.57;100695.78;5013004;28;20121;-75
2020/12/19 06:22:06;;;;;;;13.07;6.90;;;;;;;2.84;82.31;100691.00;5013075;28;20267;-76
2020/12/19 06:24:47;;;;;;;11.80;6.55;;;;;;;2.88;81.67;100703.06;5011806;28;20040;-75
2020/12/19 06:27:22;;;;;;;11.20;6.97;;;;;;;2.79;82.58;100691.47;5012594;28;20040;-75
2020/12/19 06:29:48;;;;;;;12.93;6.97;;;;;;;2.84;81.93;100694.50;5029133;28;20103;-75
2020/12/19 06:32:23;;;;;;;13.15;7.18;;;;;;;2.77;82.46;100706.00;5012427;28;20419;-77
2020/12/19 06:35:04;;;;;;;12.90;7.07;;;;;;;2.74;82.30;100692.94;4983423;28;20043;-76
2020/12/19 06:37:36;;;;;;;14.27;7.88;;;;;;;2.79;82.68;100680.78;4966099;28;20037;-76
2020/12/19 06:40:19;;;;;;;15.02;9.15;;;;;;;2.74;82.77;100679.59;4991935;28;20317;-76
2020/12/19 06:42:46;;;;;;;10.38;6.50;;;;;;;2.77;82.77;100685.44;5008900;28;20076;-77
2020/12/19 06:45:30;;;;;;;13.73;8.50;;;;;;;2.79;82.60;100678.13;5007777;28;20065;-76
2020/12/19 06:47:57;;;;;;;17.00;8.68;;;;;;;2.74;82.67;100685.78;4987868;28;20470;-76
2020/12/19 06:50:24;;;;;;;13.30;7.60;;;;;;;2.70;82.62;100692.41;5003662;28;20530;-77
2020/12/19 06:52:58;;;;;;;14.75;7.63;;;;;;;2.71;82.40;100688.75;5013396;28;20045;-76
2020/12/19 06:55:26;;;;;;;16.25;9.05;;;;;;;2.75;82.65;100687.47;5012541;28;20187;-75
2020/12/19 06:57:57;;;;;;;15.32;8.00;;;;;;;2.76;83.15;100688.28;5012877;28;20067;-75
2020/12/19 07:00:37;;;;;;;14.35;8.25;;;;;;;3.19;82.28;100687.38;5012019;28;20395;-76
2020/12/19 07:03:08;;;;;;;14.98;8.15;;;;;;;2.78;82.25;100688.94;5001616;28;20186;-76
2020/12/19 07:05:34;;;;;;;15.57;8.00;;;;;;;2.97;83.54;100685.25;4985884;28;20033;-76
2020/12/19 07:08:22;;;;;;;14.68;8.38;;;;;;;2.85;82.79;100674.84;5030775;28;20044;-75
2020/12/19 07:10:50;;;;;;;10.90;6.68;;;;;;;3.04;83.29;100687.13;5035849;28;20048;-75
2020/12/19 07:13:31;;;;;;;14.90;8.23;;;;;;;2.78;82.61;100695.13;5035648;28;20332;-76
2020/12/19 07:15:56;;;;;;;17.42;8.27;;;;;;;2.73;83.12;100692.09;5025597;28;20123;-75
2020/12/19 07:18:33;;;;;;;15.30;7.25;;;;;;;2.81;82.42;100693.97;5036592;28;20048;-77
2020/12/19 07:21:05;;;;;;;15.45;7.70;;;;;;;3.15;81.74;100684.16;5036909;28;20041;-77
2020/12/19 07:23:33;;;;;;;15.15;8.00;;;;;;;3.38;84.23;100688.94;5026167;28;20318;-75
2020/12/19 07:25:59;;;;;;;15.00;8.50;;;;;;;2.85;82.39;100695.34;5007402;28;20381;-76
2020/12/19 07:28:25;;;;;;;12.13;7.10;;;;;;;2.86;82.36;100689.88;5004811;28;20455;-76
2020/12/19 07:30:51;;;;;;;12.02;6.97;;;;;;;3.48;84.97;100686.97;5007485;28;20093;-75
2020/12/19 07:33:17;;;;;;;14.48;8.10;;;;;;;2.91;82.24;100689.38;5006090;28;20040;-75
2020/12/19 07:35:43;;;;;;;15.88;8.27;;;;;;;2.88;82.73;100689.72;5004971;28;20029;-75
2020/12/19 07:38:09;;;;;;;16.42;9.85;;;;;;;2.82;82.33;100688.50;5003507;28;20566;-75
2020/12/19 07:40:34;;;;;;;16.70;8.52;;;;;;;3.53;81.66;100693.53;5005159;28;20100;-75
2020/12/19 07:43:05;;;;;;;19.30;9.35;;;;;;;3.08;81.43;100688.47;5005139;28;20088;-76
2020/12/19 07:45:30;;;;;;;16.60;9.77;;;;;;;2.89;82.41;100689.53;5004294;28;20033;-75
2020/12/19 07:47:59;;;;;;;13.70;7.65;;;;;;;2.97;81.67;100691.44;5023726;28;20067;-77
2020/12/19 07:50:26;;;;;;;14.60;8.32;;;;;;;2.90;82.03;100693.88;5006382;28;20477;-75
2020/12/19 07:53:02;;;;;;;14.15;9.00;;;;;;;2.98;81.57;100690.44;5004264;28;20034;-76
2020/12/19 07:55:28;;;;;;;18.35;9.82;;;;;;;3.09;81.46;100697.34;5016641;28;20354;-76
2020/12/19 07:57:54;;;;;;;16.08;9.05;;;;;;;3.12;82.37;100697.84;5009277;28;20044;-76
2020/12/19 08:00:21;;;;;;;17.77;9.60;;;;;;;2.97;82.11;100707.44;5006206;28;20228;-75
2020/12/19 08:02:46;;;;;;;14.20;8.68;;;;;;;3.19;81.38;100703.41;5030816;28;20123;-75
2020/12/19 08:05:12;;;;;;;16.15;10.02;;;;;;;3.20;83.18;100702.41;5025206;28;20720;-76
2020/12/19 08:07:38;;;;;;;17.15;10.73;;;;;;;3.01;81.96;100713.28;5013150;28;20495;-75
2020/12/19 08:10:05;;;;;;;18.05;9.23;;;;;;;3.11;82.78;100700.69;5006462;28;20144;-76
2020/12/19 08:12:31;;;;;;;17.38;9.38;;;;;;;3.34;81.60;100701.81;5008528;28;20040;-76
2020/12/19 08:14:59;;;;;;;20.23;11.30;;;;;;;3.33;84.02;100702.81;5017596;28;20044;-75
2020/12/19 08:17:26;;;;;;;19.20;12.00;;;;;;;3.03;82.30;100705.97;5034586;28;20045;-75
2020/12/19 08:19:55;;;;;;;17.27;10.57;;;;;;;3.89;83.86;100695.97;5029569;28;20481;-75
2020/12/19 08:22:21;;;;;;;21.42;10.27;;;;;;;3.36;81.46;100694.44;5043728;28;20075;-76
2020/12/19 08:24:47;;;;;;;21.00;10.48;;;;;;;3.92;84.01;100696.47;5034561;28;20044;-76
2020/12/19 08:27:40;;;;;;;20.95;11.68;;;;;;;3.18;81.86;100704.38;5047379;28;20047;-75
2020/12/19 08:30:05;;;;;;;21.13;11.73;;;;;;;3.04;82.04;100703.13;5030703;28;20047;-76
2020/12/19 08:32:31;;;;;;;21.80;12.23;;;;;;;3.06;82.03;100708.31;5030798;28;20416;-76
2020/12/19 08:34:57;;;;;;;21.20;11.90;;;;;;;3.84;82.21;100712.50;5030596;28;20039;-76
2020/12/19 08:37:23;;;;;;;23.02;13.05;;;;;;;3.33;81.91;100699.28;5034113;28;20041;-76
2020/12/19 08:40:04;;;;;;;22.02;12.45;;;;;;;3.81;83.06;100699.44;5034705;28;20530;-76
2020/12/19 08:42:33;;;;;;;21.17;13.57;;;;;;;3.48;81.46;100709.19;5016853;28;20041;-76
2020/12/19 08:45:14;;;;;;;23.75;12.30;;;;;;;3.57;82.24;100716.28;5015194;28;20032;-76
2020/12/19 08:47:41;;;;;;;23.00;12.80;;;;;;;3.17;82.18;100706.22;5014354;28;20036;-75
2020/12/19 08:50:06;;;;;;;21.85;11.18;;;;;;;3.12;81.78;100713.88;5013558;28;20037;-75
2020/12/19 08:52:32;;;;;;;18.90;10.55;;;;;;;3.28;81.86;100708.63;5014184;28;20479;-76
2020/12/19 08:54:58;;;;;;;20.23;10.70;;;;;;;3.47;81.54;100710.19;5014154;28;20037;-75
2020/12/19 08:57:27;;;;;;;20.58;11.02;;;;;;;3.37;81.62;100704.13;5013693;28;20473;-76
2020/12/19 09:00:14;;;;;;;23.15;11.45;;;;;;;3.06;81.58;100695.81;5013743;28;20048;-75
2020/12/19 09:02:43;;;;;;;22.02;13.70;;;;;;;3.36;83.46;100693.59;5013433;28;20041;-76
2020/12/19 09:05:10;;;;;;;23.40;12.30;;;;;;;3.28;81.72;100707.78;5013803;28;20056;-76
2020/12/19 09:07:36;;;;;;;21.38;12.18;;;;;;;3.16;81.88;100703.72;5018748;28;20491;-75
2020/12/19 09:10:22;;;;;;;23.40;12.13;;;;;;;3.05;82.32;100706.66;5003710;28;20045;-75
2020/12/19 09:12:48;;;;;;;32.97;13.30;;;;;;;3.15;82.46;100718.91;5030164;28;20106;-76
2020/12/19 09:15:19;;;;;;;21.10;12.70;;;;;;;3.05;82.06;100714.66;5015141;28;20033;-76
2020/12/19 09:17:44;;;;;;;19.95;10.98;;;;;;;3.28;82.83;100718.47;5029995;28;20032;-75
2020/12/19 09:20:10;;;;;;;24.75;13.55;;;;;;;3.31;81.79;100711.97;5029323;28;20510;-76
2020/12/19 09:22:35;;;;;;;23.80;12.48;;;;;;;3.20;81.14;100713.09;5030112;28;20037;-76
2020/12/19 09:25:01;;;;;;;28.02;14.73;;;;;;;3.21;82.01;100715.59;5029005;28;20082;-77
2020/12/19 09:27:26;;;;;;;25.27;14.00;;;;;;;3.23;81.80;100713.59;5029582;28;20086;-76
2020/12/19 09:29:52;;;;;;;26.80;14.13;;;;;;;3.24;81.91;100715.25;5029230;28;20067;-78
2020/12/19 09:32:17;;;;;;;20.65;12.23;;;;;;;3.41;82.13;100712.69;5045357;28;20349;-76
2020/12/19 09:34:43;;;;;;;25.52;14.02;;;;;;;3.35;81.36;100716.81;5012405;28;20048;-76
2020/12/19 09:37:08;;;;;;;22.35;14.45;;;;;;;3.15;81.53;100713.56;5014419;28;20041;-76
2020/12/19 09:39:34;;;;;;;21.70;13.82;;;;;;;3.18;81.84;100720.41;5032033;28;20056;-76
2020/12/19 09:41:59;;;;;;;23.42;13.27;;;;;;;3.27;81.28;100714.13;5035561;28;20124;-75
2020/12/19 09:44:25;;;;;;;23.67;13.45;;;;;;;3.39;82.22;100718.19;5012330;28;20182;-75
2020/12/19 09:46:50;;;;;;;21.55;12.65;;;;;;;3.54;81.87;100719.25;5029133;28;20040;-77
2020/12/19 09:49:16;;;;;;;20.10;12.95;;;;;;;3.35;81.14;100711.47;5012909;28;20067;-75
2020/12/19 09:51:41;;;;;;;19.45;12.52;;;;;;;3.25;81.24;100706.25;5028281;28;20500;-75
2020/12/19 09:54:06;;;;;;;21.48;13.32;;;;;;;4.30;79.05;100699.53;5011988;28;20488;-75
2020/12/19 09:56:38;;;;;;;22.08;13.00;;;;;;;3.74;78.98;100706.44;5001756;28;20082;-76
2020/12/19 09:59:04;;;;;;;;;;;;;;;3.56;80.10;100705.75;5012385;28;20039;-76
2020/12/19 10:01:29;;;;;;;27.90;13.43;;;;;;;3.49;79.97;100700.19;5011803;28;19920;-76
2020/12/19 10:03:55;;;;;;;19.75;10.98;;;;;;;3.32;80.83;100701.13;5008148;28;20037;-75
2020/12/19 10:06:21;;;;;;;17.73;11.73;;;;;;;4.18;81.85;100696.34;4993125;28;20038;-75
2020/12/19 10:08:46;;;;;;;19.15;12.20;;;;;;;3.65;79.81;100699.41;5022456;28;20063;-76
2020/12/19 10:11:12;;;;;;;18.95;12.05;;;;;;;3.42;81.00;100695.66;5027309;28;20032;-75
2020/12/19 10:13:37;;;;;;;20.13;12.05;;;;;;;4.15;80.09;100702.03;5031790;28;20119;-76
2020/12/19 10:16:05;;;;;;;18.80;11.23;;;;;;;3.57;80.26;100699.41;5023729;28;20040;-75
2020/12/19 10:18:31;;;;;;;20.67;12.07;;;;;;;3.54;80.32;100713.91;4991192;28;20408;-75
2020/12/19 10:20:57;;;;;;;19.25;12.05;;;;;;;3.47;80.37;100715.53;4991640;28;20108;-76
2020/12/19 10:23:22;;;;;;;20.50;12.55;;;;;;;3.68;80.51;100704.44;4992354;28;20195;-76
2020/12/19 10:25:48;;;;;;;21.45;12.80;;;;;;;3.50;80.19;100715.22;5007828;28;20314;-76
2020/12/19 10:28:13;;;;;;;18.70;11.60;;;;;;;3.55;80.16;100714.75;4992449;28;20037;-76
2020/12/19 10:30:38;;;;;;;17.48;10.02;;;;;;;3.90;81.84;100695.81;4993115;28;20186;-75
2020/12/19 10:33:04;;;;;;;19.58;12.07;;;;;;;3.62;79.99;100705.06;4992014;28;20046;-75
2020/12/19 10:35:29;;;;;;;20.60;12.00;;;;;;;3.57;80.20;100700.22;5013098;28;20047;-75
2020/12/19 10:37:55;;;;;;;20.27;12.82;;;;;;;3.62;80.01;100694.38;5031981;28;20095;-75
2020/12/19 10:40:22;;;;;;;19.77;12.23;;;;;;;3.63;80.17;100702.25;5031471;28;20044;-76
2020/12/19 10:42:48;;;;;;;17.23;11.68;;;;;;;3.67;79.91;100694.75;5034619;28;20518;-76
2020/12/19 10:45:14;;;;;;;22.50;12.98;;;;;;;3.93;81.56;100697.28;5031550;28;20112;-76
2020/12/19 10:47:39;;;;;;;20.73;12.13;;;;;;;3.53;79.93;100682.84;5031556;28;20434;-75
2020/12/19 10:50:05;;;;;;;19.15;11.80;;;;;;;3.77;79.20;100683.91;5031576;28;20045;-75
2020/12/19 10:52:30;;;;;;;17.38;10.80;;;;;;;4.42;80.72;100679.44;5030667;28;20179;-76
2020/12/19 10:54:56;;;;;;;19.20;11.27;;;;;;;4.03;78.45;100697.19;5031392;28;20048;-76
2020/12/19 10:57:21;;;;;;;15.00;9.82;;;;;;;4.38;78.27;100685.31;5031574;28;20060;-76
2020/12/19 10:59:47;;;;;;;16.35;9.35;;;;;;;4.60;78.28;100682.81;5031923;28;20028;-76
2020/12/19 11:02:13;;;;;;;17.30;10.48;;;;;;;4.27;76.91;100684.63;5036835;28;20137;-76
2020/12/19 11:04:38;;;;;;;13.82;8.98;;;;;;;4.06;77.87;100676.25;5031568;28;20145;-76
2020/12/19 11:07:04;;;;;;;13.98;9.35;;;;;;;4.02;78.65;100674.94;5030766;28;20036;-76
2020/12/19 11:09:30;;;;;;;14.38;10.20;;;;;;;3.69;78.54;100667.84;5031482;28;20498;-75
2020/12/19 11:11:56;;;;;;;16.65;10.15;;;;;;;3.65;78.50;100683.38;5015291;28;20292;-75
2020/12/19 11:14:23;;;;;;;17.88;10.40;;;;;;;3.75;79.38;100673.38;4993704;28;20462;-75
2020/12/19 11:16:49;;;;;;;13.82;9.63;;;;;;;3.88;78.45;100675.56;5003538;28;20033;-75
2020/12/19 11:19:14;;;;;;;12.40;8.30;;;;;;;3.76;78.47;100668.84;5011930;28;20400;-75
2020/12/19 11:21:44;;;;;;;18.25;10.23;;;;;;;3.73;78.11;100667.34;5017754;28;20024;-76
2020/12/19 11:24:11;;;;;;;13.63;8.45;;;;;;;3.74;78.12;100671.69;5031408;28;20182;-76
2020/12/19 11:26:36;;;;;;;12.88;7.80;;;;;;;3.80;79.01;100670.22;5030909;28;20491;-76
2020/12/19 11:29:02;;;;;;;11.55;7.18;;;;;;;3.76;78.22;100663.50;5030907;28;20044;-76
2020/12/19 11:31:28;;;;;;;14.38;8.70;;;;;;;3.79;77.88;100665.88;5031131;28;20052;-76
2020/12/19 11:33:55;;;;;;;13.90;8.25;;;;;;;3.68;77.62;100659.00;5048106;28;20044;-76
2020/12/19 11:36:21;;;;;;;12.05;7.15;;;;;;;3.68;77.58;100653.63;5048746;28;20106;-75
2020/12/19 11:38:47;;;;;;;12.60;7.47;;;;;;;3.86;77.70;100665.03;5047433;28;20769;-76
2020/12/19 11:41:12;;;;;;;11.30;7.70;;;;;;;3.83;77.53;100660.00;5028120;28;20052;-75
2020/12/19 11:43:38;;;;;;;17.00;7.85;;;;;;;3.88;77.84;100652.34;5015385;28;20585;-76
2020/12/19 11:46:07;;;;;;;11.23;7.85;;;;;;;3.71;77.25;100647.94;5031969;28;20064;-76
2020/12/19 11:48:32;;;;;;;9.18;6.47;;;;;;;3.89;78.17;100645.16;5014930;28;20056;-76
2020/12/19 11:50:58;;;;;;;11.35;7.10;;;;;;;3.74;76.93;100644.94;5014864;28;20175;-76
2020/12/19 11:53:23;;;;;;;10.00;6.88;;;;;;;3.78;77.35;100646.31;5023621;28;20039;-76
2020/12/19 11:55:49;;;;;;;12.05;7.38;;;;;;;3.69;77.72;100644.63;5049611;28;20040;-76
2020/12/19 11:58:14;;;;;;;11.45;7.85;;;;;;;3.69;77.51;100636.59;5033843;28;20441;-75
2020/12/19 12:00:41;;;;;;;10.43;6.15;;;;;;;3.78;77.53;100629.41;5033154;28;20032;-75
2020/12/19 12:03:07;;;;;;;8.80;6.43;;;;;;;3.82;76.99;100634.25;5049868;28;20044;-75
2020/12/19 12:05:34;;;;;;;10.27;6.38;;;;;;;3.82;77.38;100639.59;5027970;28;20339;-76
2020/12/19 12:08:00;;;;;;;11.55;6.97;;;;;;;3.85;77.62;100631.25;5029295;28;20090;-76
2020/12/19 12:10:25;;;;;;;15.07;7.65;;;;;;;3.95;77.14;100634.59;5027643;28;20070;-76
2020/12/19 12:12:51;;;;;;;15.80;7.55;;;;;;;3.73;76.62;100635.25;5017340;28;20166;-76
2020/12/19 12:15:16;;;;;;;13.40;7.32;;;;;;;3.83;76.69;100633.25;5017457;28;20064;-76
2020/12/19 12:17:42;;;;;;;11.80;7.22;;;;;;;3.65;77.11;100640.59;5031899;28;20049;-75
2020/12/19 12:20:07;;;;;;;14.40;7.57;;;;;;;3.87;78.20;100629.25;5013551;28;20033;-75
2020/12/19 12:22:33;;;;;;;13.02;8.20;;;;;;;3.85;76.97;100639.28;5046964;28;20410;-75
2020/12/19 12:24:58;;;;;;;15.52;8.73;;;;;;;3.83;77.35;100622.56;5049723;28;20032;-76
2020/12/19 12:27:24;;;;;;;13.00;7.88;;;;;;;4.02;78.14;100637.47;5033044;28;20576;-75
2020/12/19 12:29:50;;;;;;;11.48;7.13;;;;;;;3.85;76.51;100625.06;5032223;28;20094;-78
2020/12/19 12:32:15;;;;;;;14.77;7.40;;;;;;;3.83;76.67;100621.72;5029079;28;20044;-76
2020/12/19 12:34:41;;;;;;;12.40;7.60;;;;;;;3.79;76.83;100618.56;5033093;28;20045;-74
2020/12/19 12:37:07;;;;;;;11.43;6.82;;;;;;;3.76;77.07;100615.38;5031357;28;20044;-78
2020/12/19 12:39:33;;;;;;;12.35;8.00;;;;;;;3.87;76.71;100613.22;5034444;28;20133;-76
2020/12/19 12:41:59;;;;;;;10.93;7.30;;;;;;;3.88;76.38;100622.06;5049832;28;20327;-76
2020/12/19 12:44:24;;;;;;;11.80;8.35;;;;;;;3.80;76.58;100630.09;5032647;28;20480;-76
2020/12/19 12:46:50;;;;;;;14.98;8.50;;;;;;;3.67;76.71;100619.88;5023014;28;20492;-76
2020/12/19 12:49:15;;;;;;;13.48;8.18;;;;;;;3.65;77.30;100616.53;5030028;28;20108;-75
2020/12/19 12:51:41;;;;;;;13.23;8.32;;;;;;;3.84;77.35;100618.88;5023897;28;20037;-75
2020/12/19 12:54:06;;;;;;;13.57;7.88;;;;;;;3.79;76.47;100610.53;5026489;28;20564;-75
2020/12/19 12:56:32;;;;;;;10.35;7.65;;;;;;;3.82;76.10;100618.22;5048574;28;20411;-76
2020/12/19 12:58:57;;;;;;;14.73;8.27;;;;;;;3.72;76.45;100620.19;5033503;28;20040;-76
2020/12/19 13:01:34;;;;;;;13.30;8.27;;;;;;;3.77;76.65;100615.22;5050047;28;20041;-76
2020/12/19 13:04:01;;;;;;;16.50;7.78;;;;;;;3.66;76.93;100610.19;5033296;28;20132;-76
2020/12/19 13:06:26;;;;;;;12.35;8.45;;;;;;;3.92;77.42;100620.75;5033206;28;20539;-76
2020/12/19 13:08:53;;;;;;;15.98;8.75;;;;;;;4.09;75.76;100626.94;5033059;28;20507;-77
2020/12/19 13:11:21;;;;;;;17.02;8.80;;;;;;;4.03;76.07;100624.94;5021910;28;20056;-76
2020/12/19 13:13:47;;;;;;;12.68;8.18;;;;;;;4.19;75.38;100630.28;5010064;28;20512;-76
2020/12/19 13:16:14;;;;;;;14.52;9.27;;;;;;;4.38;75.53;100633.44;5013270;28;20037;-76
2020/12/19 13:18:40;;;;;;;14.52;8.75;;;;;;;4.14;75.08;100624.59;4992682;28;20596;-76
2020/12/19 13:21:06;;;;;;;12.38;7.50;;;;;;;4.24;75.61;100631.47;4992911;28;20044;-76
2020/12/19 13:23:31;;;;;;;18.67;10.18;;;;;;;4.01;75.02;100625.09;5016755;28;20037;-77
2020/12/19 13:25:56;;;;;;;14.88;9.50;;;;;;;4.20;76.46;100627.44;5002241;28;20040;-76
2020/12/19 13:28:23;;;;;;;13.98;8.18;;;;;;;4.78;75.92;100628.19;4989829;28;20601;-76
2020/12/19 13:30:49;;;;;;;14.82;9.48;;;;;;;4.03;75.32;100627.63;4992484;28;20492;-76
2020/12/19 13:33:15;;;;;;;17.05;10.25;;;;;;;3.68;75.77;100637.59;4991743;28;20073;-76
2020/12/19 13:35:41;;;;;;;14.65;8.90;;;;;;;3.73;75.99;100634.41;4992167;28;20044;-76
2020/12/19 13:38:07;;;;;;;14.93;9.10;;;;;;;3.82;76.03;100634.25;5011147;28;20507;-76
2020/12/19 13:40:32;;;;;;;16.02;10.02;;;;;;;4.02;75.92;100633.97;5026900;28;20049;-76
2020/12/19 13:42:58;;;;;;;15.57;9.40;;;;;;;4.27;76.00;100627.59;5011081;28;20048;-77
2020/12/19 13:45:24;;;;;;;13.00;9.85;;;;;;;4.05;74.59;100629.09;5010457;28;20118;-76
2020/12/19 13:47:50;;;;;;;15.35;9.88;;;;;;;4.00;77.59;100634.97;5010425;28;20408;-76
2020/12/19 13:50:16;;;;;;;14.18;8.63;;;;;;;4.02;75.03;100629.44;5011936;28;20033;-76
2020/12/19 13:52:43;;;;;;;15.15;8.63;;;;;;;3.97;76.73;100637.97;5046135;28;20414;-76
2020/12/19 13:55:09;;;;;;;14.15;9.57;;;;;;;3.93;75.81;100631.25;5014479;28;20131;-76
2020/12/19 13:57:35;;;;;;;15.73;8.73;;;;;;;4.22;76.21;100643.31;5025819;28;20112;-76
2020/12/19 14:00:04;;;;;;;18.05;10.23;;;;;;;3.81;75.92;100642.44;5034283;28;20044;-76
2020/12/19 14:02:33;;;;;;;16.80;10.15;;;;;;;3.79;75.70;100633.78;5042974;28;20044;-76
2020/12/19 14:05:00;;;;;;;19.25;12.13;;;;;;;3.64;76.57;100639.75;5043378;28;20106;-76
2020/12/19 14:07:26;;;;;;;18.58;10.52;;;;;;;3.84;77.86;100631.41;5029008;28;20522;-77
2020/12/19 14:09:52;;;;;;;16.27;11.35;;;;;;;3.60;77.14;100635.72;5028340;28;20094;-76
2020/12/19 14:12:19;;;;;;;19.05;10.90;;;;;;;3.88;76.38;100635.44;5009243;28;20045;-76
2020/12/19 14:14:45;;;;;;;19.77;11.30;;;;;;;3.69;78.67;100627.75;5006623;28;20033;-76
2020/12/19 14:17:11;;;;;;;20.88;12.30;;;;;;;3.56;77.00;100633.56;4990977;28;20106;-76
2020/12/19 14:19:37;;;;;;;18.20;11.52;;;;;;;3.59;78.74;100631.38;5023243;28;20128;-77
2020/12/19 14:22:03;;;;;;;16.48;10.93;;;;;;;3.53;76.96;100642.72;5006692;28;20128;-77
2020/12/19 14:24:31;;;;;;;18.10;11.57;;;;;;;3.33;77.46;100644.00;5006911;28;20365;-76
2020/12/19 14:26:57;;;;;;;18.73;12.32;;;;;;;3.34;77.62;100634.16;5007390;28;20030;-76
2020/12/19 14:29:25;;;;;;;19.45;12.88;;;;;;;3.48;77.99;100646.88;5006512;28;20195;-76
2020/12/19 14:31:51;;;;;;;17.80;12.15;;;;;;;3.36;77.39;100641.00;4990270;28;20072;-76
2020/12/19 14:34:17;;;;;;;18.45;11.73;;;;;;;3.39;77.59;100639.84;5023364;28;20041;-76
2020/12/19 14:36:43;;;;;;;18.95;12.00;;;;;;;3.47;77.50;100645.19;5006473;28;20499;-76
2020/12/19 14:39:08;;;;;;;20.25;12.85;;;;;;;3.68;79.72;100640.28;5042802;28;20466;-76
2020/12/19 14:41:34;;;;;;;20.25;12.85;;;;;;;3.21;78.24;100646.13;5015093;28;20065;-76
2020/12/19 14:44:00;;;;;;;21.23;13.05;;;;;;;3.26;78.04;100641.13;5010851;28;20053;-76
2020/12/19 14:46:25;;;;;;;19.92;11.93;;;;;;;3.19;78.35;100648.13;5007308;28;20041;-77
2020/12/19 14:48:54;;;;;;;17.88;11.23;;;;;;;3.31;78.51;100645.16;4991689;28;20051;-76
2020/12/19 14:51:20;;;;;;;18.63;11.88;;;;;;;3.44;78.97;100646.38;5006526;28;20041;-76
2020/12/19 14:53:46;;;;;;;17.55;11.77;;;;;;;3.34;78.74;100655.53;5003712;28;20038;-76
2020/12/19 14:56:14;;;;;;;21.13;12.63;;;;;;;3.30;78.56;100654.19;4991045;28;20455;-76
2020/12/19 14:58:41;;;;;;;20.13;11.70;;;;;;;3.13;78.47;100656.75;5001902;28;20029;-76
2020/12/19 15:01:11;;;;;;;23.67;12.90;;;;;;;3.34;78.80;100648.34;5026696;28;20052;-76
2020/12/19 15:03:37;;;;;;;18.00;11.75;;;;;;;3.45;78.84;100657.91;5026219;28;20553;-76
2020/12/19 15:06:07;;;;;;;19.30;11.15;;;;;;;3.51;80.40;100660.75;5026718;28;20066;-76
2020/12/19 15:08:32;;;;;;;30.10;16.15;;;;;;;3.53;77.87;100653.44;5014379;28;20060;-77
2020/12/19 15:10:59;;;;;;;24.50;13.63;;;;;;;3.13;78.36;100658.59;4991486;28;20445;-77
2020/12/19 15:13:26;;;;;;;30.17;15.60;;;;;;;3.14;78.33;100655.78;4995178;28;20100;-77
2020/12/19 15:15:52;;;;;;;26.45;15.13;;;;;;;3.20;78.32;100659.66;4994555;28;20045;-78
2020/12/19 15:18:17;;;;;;;27.30;15.90;;;;;;;2.99;78.63;100662.72;5004418;28;20100;-77
2020/12/19 15:20:43;;;;;;;27.45;16.55;;;;;;;3.00;78.70;100659.03;5011062;28;20072;-77
2020/12/19 15:23:09;;;;;;;21.40;13.48;;;;;;;3.01;78.96;100662.53;4994501;28;20044;-77
2020/12/19 15:25:34;;;;;;;19.20;12.20;;;;;;;2.97;79.71;100670.06;5013947;28;20285;-78
2020/12/19 15:27:59;;;;;;;23.27;14.07;;;;;;;2.97;79.47;100667.38;5016060;28;20134;-77
2020/12/19 15:30:25;;;;;;;20.75;12.80;;;;;;;2.98;79.31;100663.72;5017875;28;20052;-78
2020/12/19 15:32:50;;;;;;;22.00;12.73;;;;;;;3.01;79.13;100674.06;5044250;28;20102;-77
2020/12/19 15:35:20;;;;;;;23.20;13.75;;;;;;;2.83;79.53;100673.31;5029657;28;20174;-77
2020/12/19 15:37:45;;;;;;;23.42;13.88;;;;;;;3.02;80.60;100658.88;5032081;28;20035;-77
2020/12/19 15:40:11;;;;;;;21.10;14.13;;;;;;;3.00;79.91;100663.56;5032047;28;25974;-77
2020/12/19 15:42:37;;;;;;;21.80;14.15;;;;;;;2.68;79.28;100667.69;5032867;28;20043;-77
2020/12/19 15:45:04;;;;;;;22.17;13.57;;;;;;;3.09;81.48;100658.09;5042487;28;20055;-77
2020/12/19 15:47:30;;;;;;;20.60;12.57;;;;;;;2.76;79.21;100661.59;5014833;28;20043;-77
2020/12/19 15:49:56;;;;;;;21.58;13.77;;;;;;;2.76;79.40;100664.25;5015799;28;20539;-77
2020/12/19 15:52:22;;;;;;;23.17;15.07;;;;;;;2.92;78.71;100656.34;5015186;28;20079;-77
2020/12/19 15:54:47;;;;;;;22.10;14.48;;;;;;;2.65;79.54;100654.69;5031958;28;20056;-77
2020/12/19 15:57:13;;;;;;;21.20;13.23;;;;;;;2.87;79.19;100669.34;5028866;28;20045;-77
2020/12/19 15:59:38;;;;;;;22.52;13.15;;;;;;;3.25;79.85;100665.34;5013997;28;20049;-78
2020/12/19 16:02:05;;;;;;;22.90;15.57;;;;;;;2.79;79.61;100658.59;5014552;28;20033;-77
2020/12/19 16:04:30;;;;;;;23.13;14.68;;;;;;;2.98;77.98;100661.06;5014574;28;20461;-77
2020/12/19 16:06:56;;;;;;;26.95;15.82;;;;;;;3.00;78.67;100664.38;5031583;28;20518;-77
2020/12/19 16:09:21;;;;;;;24.95;14.65;;;;;;;2.73;78.74;100656.56;5031637;28;20076;-77
2020/12/19 16:11:53;;;;;;;25.83;14.02;;;;;;;2.71;80.03;100659.38;5032396;28;20500;-77
2020/12/19 16:14:19;;;;;;;23.73;14.93;;;;;;;2.91;80.05;100666.19;5051665;28;20464;-77
2020/12/19 16:16:50;;;;;;;24.88;15.70;;;;;;;2.91;79.53;100666.19;5050811;28;20040;-77
2020/12/19 16:19:16;;;;;;;23.70;14.10;;;;;;;2.85;79.16;100669.50;5034439;28;20279;-77
2020/12/19 16:21:42;;;;;;;22.58;14.13;;;;;;;2.64;80.08;100670.84;5034538;28;21663;-77
2020/12/19 16:24:07;;;;;;;23.20;14.23;;;;;;;2.67;80.64;100670.53;5033147;28;20121;-77